Main page
METAR-TAF:

METAR-TAF

Airports :

Palestine Municipal Airport

Palestine, Texas, United States

latitude: 31-46-46N, longitude: 095-42-22W, elevation: 423 ft

Current weather observation

The report was made 35 minutes ago, at 01:15 UTC
Calm wind
Temperature 59°F
Humidity 33%
Pressure 30.05 in. Hg
Visibility: 10 miles
Clear sky

METAR: KPSN 240115Z AUTO 00000KT 10SM CLR 15/M01 A3005 RMK AO2

Time: 19:50 (01:50 UTC)


TAF: missing

Weather observations and forecasts of more than 4000 airports (METAR and TAF reports).

The available stations are represented by yellow and red dots on the map.

Hover mouse over dot to see the name of the station.

Then click to see weather observations and forecasts.

To change the map : click on the green buttons with a black cross to zoom in, on the green button with a dash to zoom out, or on the green arrows for adjacent maps.


METAR-TAF: